sensor_id;sensor_type;location;lat;lon;timestamp;P1;durP1;ratioP1;P2;durP2;ratioP2
33826;SDS011;20128;45.582;5.298;2023-02-11T00:01:51;90.72;;;43.67;;
33826;SDS011;20128;45.582;5.298;2023-02-11T00:04:17;112.50;;;51.03;;
33826;SDS011;20128;45.582;5.298;2023-02-11T00:06:42;96.80;;;44.03;;
33826;SDS011;20128;45.582;5.298;2023-02-11T00:09:09;95.72;;;44.92;;
33826;SDS011;20128;45.582;5.298;2023-02-11T00:11:35;95.45;;;42.35;;
33826;SDS011;20128;45.582;5.298;2023-02-11T00:14:02;100.65;;;44.47;;
33826;SDS011;20128;45.582;5.298;2023-02-11T00:16:30;113.03;;;50.03;;
33826;SDS011;20128;45.582;5.298;2023-02-11T00:19:00;110.65;;;49.33;;
33826;SDS011;20128;45.582;5.298;2023-02-11T00:21:27;97.90;;;45.50;;
33826;SDS011;20128;45.582;5.298;2023-02-11T00:23:53;93.97;;;40.85;;
33826;SDS011;20128;45.582;5.298;2023-02-11T00:26:22;96.97;;;43.70;;
33826;SDS011;20128;45.582;5.298;2023-02-11T00:28:51;96.68;;;43.83;;
33826;SDS011;20128;45.582;5.298;2023-02-11T00:31:18;93.07;;;41.53;;
33826;SDS011;20128;45.582;5.298;2023-02-11T00:33:44;87.82;;;41.15;;
33826;SDS011;20128;45.582;5.298;2023-02-11T00:36:13;83.50;;;38.83;;
33826;SDS011;20128;45.582;5.298;2023-02-11T00:38:44;84.68;;;40.38;;
33826;SDS011;20128;45.582;5.298;2023-02-11T00:41:11;81.95;;;37.65;;
33826;SDS011;20128;45.582;5.298;2023-02-11T00:43:38;83.90;;;40.63;;
33826;SDS011;20128;45.582;5.298;2023-02-11T00:46:05;86.38;;;38.60;;
33826;SDS011;20128;45.582;5.298;2023-02-11T00:48:31;87.63;;;39.97;;
33826;SDS011;20128;45.582;5.298;2023-02-11T00:50:57;92.85;;;39.80;;
33826;SDS011;20128;45.582;5.298;2023-02-11T00:53:22;84.55;;;38.42;;
33826;SDS011;20128;45.582;5.298;2023-02-11T00:55:48;85.60;;;39.05;;
33826;SDS011;20128;45.582;5.298;2023-02-11T00:58:14;86.60;;;36.38;;
33826;SDS011;20128;45.582;5.298;2023-02-11T01:00:39;81.63;;;38.13;;
33826;SDS011;20128;45.582;5.298;2023-02-11T01:03:05;82.18;;;36.88;;
33826;SDS011;20128;45.582;5.298;2023-02-11T01:05:31;82.55;;;37.53;;
33826;SDS011;20128;45.582;5.298;2023-02-11T01:07:56;89.97;;;38.45;;
33826;SDS011;20128;45.582;5.298;2023-02-11T01:10:22;99.72;;;38.50;;
33826;SDS011;20128;45.582;5.298;2023-02-11T01:12:49;92.75;;;39.50;;
33826;SDS011;20128;45.582;5.298;2023-02-11T01:15:15;95.15;;;38.97;;
33826;SDS011;20128;45.582;5.298;2023-02-11T01:17:42;91.05;;;39.53;;
33826;SDS011;20128;45.582;5.298;2023-02-11T01:20:11;91.28;;;40.53;;
33826;SDS011;20128;45.582;5.298;2023-02-11T01:22:40;89.90;;;39.35;;
33826;SDS011;20128;45.582;5.298;2023-02-11T01:25:06;93.70;;;39.03;;
33826;SDS011;20128;45.582;5.298;2023-02-11T01:27:32;95.70;;;40.65;;
33826;SDS011;20128;45.582;5.298;2023-02-11T01:29:58;94.68;;;40.05;;
33826;SDS011;20128;45.582;5.298;2023-02-11T01:32:24;89.45;;;37.63;;
33826;SDS011;20128;45.582;5.298;2023-02-11T01:34:49;94.70;;;39.38;;
33826;SDS011;20128;45.582;5.298;2023-02-11T01:37:15;86.47;;;38.80;;
33826;SDS011;20128;45.582;5.298;2023-02-11T01:39:41;90.60;;;38.85;;
33826;SDS011;20128;45.582;5.298;2023-02-11T01:42:06;86.78;;;38.58;;
33826;SDS011;20128;45.582;5.298;2023-02-11T01:44:36;92.13;;;41.03;;
33826;SDS011;20128;45.582;5.298;2023-02-11T01:47:04;89.03;;;37.85;;
33826;SDS011;20128;45.582;5.298;2023-02-11T01:49:31;91.05;;;38.55;;
33826;SDS011;20128;45.582;5.298;2023-02-11T01:52:04;87.13;;;38.60;;
33826;SDS011;20128;45.582;5.298;2023-02-11T01:54:34;87.93;;;38.20;;
33826;SDS011;20128;45.582;5.298;2023-02-11T01:57:23;89.00;;;38.88;;
33826;SDS011;20128;45.582;5.298;2023-02-11T02:03:04;93.93;;;39.67;;
33826;SDS011;20128;45.582;5.298;2023-02-11T02:05:44;88.78;;;38.00;;
33826;SDS011;20128;45.582;5.298;2023-02-11T02:08:24;94.35;;;41.08;;
33826;SDS011;20128;45.582;5.298;2023-02-11T02:11:01;95.72;;;40.72;;
33826;SDS011;20128;45.582;5.298;2023-02-11T02:13:29;92.28;;;40.63;;
33826;SDS011;20128;45.582;5.298;2023-02-11T02:15:58;85.65;;;38.53;;
33826;SDS011;20128;45.582;5.298;2023-02-11T02:18:45;91.63;;;39.17;;
33826;SDS011;20128;45.582;5.298;2023-02-11T02:32:32;93.65;;;39.88;;
33826;SDS011;20128;45.582;5.298;2023-02-11T02:40:37;96.40;;;42.00;;
33826;SDS011;20128;45.582;5.298;2023-02-11T02:43:11;94.65;;;42.60;;
33826;SDS011;20128;45.582;5.298;2023-02-11T02:45:38;96.00;;;43.05;;
33826;SDS011;20128;45.582;5.298;2023-02-11T02:48:04;91.32;;;38.78;;
33826;SDS011;20128;45.582;5.298;2023-02-11T02:50:31;94.05;;;39.33;;
33826;SDS011;20128;45.582;5.298;2023-02-11T02:55:43;91.13;;;41.03;;
33826;SDS011;20128;45.582;5.298;2023-02-11T03:09:47;87.40;;;38.72;;
33826;SDS011;20128;45.582;5.298;2023-02-11T03:12:17;84.85;;;36.50;;
33826;SDS011;20128;45.582;5.298;2023-02-11T03:14:44;87.82;;;35.95;;
33826;SDS011;20128;45.582;5.298;2023-02-11T03:17:10;90.38;;;39.35;;
33826;SDS011;20128;45.582;5.298;2023-02-11T03:19:42;86.13;;;35.88;;
33826;SDS011;20128;45.582;5.298;2023-02-11T03:22:12;86.72;;;36.22;;
33826;SDS011;20128;45.582;5.298;2023-02-11T03:24:43;88.30;;;38.95;;
33826;SDS011;20128;45.582;5.298;2023-02-11T03:27:25;88.90;;;40.22;;
33826;SDS011;20128;45.582;5.298;2023-02-11T03:30:00;85.30;;;36.08;;
33826;SDS011;20128;45.582;5.298;2023-02-11T03:32:36;82.80;;;36.30;;
33826;SDS011;20128;45.582;5.298;2023-02-11T03:37:48;85.95;;;38.70;;
33826;SDS011;20128;45.582;5.298;2023-02-11T03:40:18;116.63;;;43.90;;
33826;SDS011;20128;45.582;5.298;2023-02-11T03:45:22;88.22;;;36.78;;
33826;SDS011;20128;45.582;5.298;2023-02-11T03:47:50;101.93;;;41.80;;
33826;SDS011;20128;45.582;5.298;2023-02-11T03:50:25;98.05;;;41.92;;
33826;SDS011;20128;45.582;5.298;2023-02-11T03:52:53;96.25;;;40.90;;
33826;SDS011;20128;45.582;5.298;2023-02-11T03:55:21;92.75;;;39.90;;
33826;SDS011;20128;45.582;5.298;2023-02-11T03:57:49;91.13;;;38.97;;
33826;SDS011;20128;45.582;5.298;2023-02-11T04:00:16;113.28;;;49.47;;
33826;SDS011;20128;45.582;5.298;2023-02-11T04:02:42;116.65;;;45.03;;
33826;SDS011;20128;45.582;5.298;2023-02-11T04:05:09;109.30;;;46.30;;
33826;SDS011;20128;45.582;5.298;2023-02-11T04:07:37;115.95;;;49.42;;
33826;SDS011;20128;45.582;5.298;2023-02-11T04:10:03;129.80;;;55.25;;
33826;SDS011;20128;45.582;5.298;2023-02-11T04:12:29;122.07;;;51.15;;
33826;SDS011;20128;45.582;5.298;2023-02-11T04:14:55;114.07;;;50.22;;
33826;SDS011;20128;45.582;5.298;2023-02-11T04:17:21;113.38;;;50.20;;
33826;SDS011;20128;45.582;5.298;2023-02-11T04:19:47;101.43;;;42.00;;
33826;SDS011;20128;45.582;5.298;2023-02-11T04:22:13;109.63;;;44.03;;
33826;SDS011;20128;45.582;5.298;2023-02-11T04:24:38;124.15;;;54.22;;
33826;SDS011;20128;45.582;5.298;2023-02-11T04:27:04;101.65;;;44.20;;
33826;SDS011;20128;45.582;5.298;2023-02-11T04:29:30;103.38;;;42.17;;
33826;SDS011;20128;45.582;5.298;2023-02-11T04:31:56;101.15;;;43.40;;
33826;SDS011;20128;45.582;5.298;2023-02-11T04:34:21;94.85;;;40.45;;
33826;SDS011;20128;45.582;5.298;2023-02-11T04:36:48;114.80;;;49.42;;
33826;SDS011;20128;45.582;5.298;2023-02-11T04:39:14;104.90;;;43.05;;
33826;SDS011;20128;45.582;5.298;2023-02-11T04:41:40;99.50;;;42.53;;
33826;SDS011;20128;45.582;5.298;2023-02-11T04:44:06;101.75;;;45.13;;
33826;SDS011;20128;45.582;5.298;2023-02-11T04:46:32;85.50;;;37.80;;
33826;SDS011;20128;45.582;5.298;2023-02-11T04:48:57;85.05;;;38.38;;
33826;SDS011;20128;45.582;5.298;2023-02-11T04:51:23;82.10;;;37.17;;
33826;SDS011;20128;45.582;5.298;2023-02-11T04:53:49;88.70;;;39.70;;
33826;SDS011;20128;45.582;5.298;2023-02-11T04:56:14;84.55;;;38.08;;
33826;SDS011;20128;45.582;5.298;2023-02-11T04:58:40;84.40;;;37.58;;
33826;SDS011;20128;45.582;5.298;2023-02-11T05:01:06;82.80;;;37.10;;
33826;SDS011;20128;45.582;5.298;2023-02-11T05:03:34;97.63;;;40.35;;
33826;SDS011;20128;45.582;5.298;2023-02-11T05:06:00;89.13;;;37.95;;
33826;SDS011;20128;45.582;5.298;2023-02-11T05:08:29;91.63;;;37.55;;
33826;SDS011;20128;45.582;5.298;2023-02-11T05:10:55;91.50;;;37.70;;
33826;SDS011;20128;45.582;5.298;2023-02-11T05:13:21;97.88;;;39.40;;
33826;SDS011;20128;45.582;5.298;2023-02-11T05:15:46;86.35;;;37.95;;
33826;SDS011;20128;45.582;5.298;2023-02-11T05:18:12;86.25;;;37.17;;
33826;SDS011;20128;45.582;5.298;2023-02-11T05:20:41;88.70;;;36.97;;
33826;SDS011;20128;45.582;5.298;2023-02-11T05:23:07;94.35;;;38.10;;
33826;SDS011;20128;45.582;5.298;2023-02-11T05:25:33;89.95;;;37.38;;
33826;SDS011;20128;45.582;5.298;2023-02-11T05:27:59;85.85;;;38.22;;
33826;SDS011;20128;45.582;5.298;2023-02-11T05:30:25;87.65;;;38.50;;
33826;SDS011;20128;45.582;5.298;2023-02-11T05:32:51;92.95;;;38.50;;
33826;SDS011;20128;45.582;5.298;2023-02-11T05:35:17;100.25;;;38.45;;
33826;SDS011;20128;45.582;5.298;2023-02-11T05:37:42;94.43;;;39.15;;
33826;SDS011;20128;45.582;5.298;2023-02-11T05:40:08;83.53;;;36.90;;
33826;SDS011;20128;45.582;5.298;2023-02-11T05:42:35;88.75;;;36.50;;
33826;SDS011;20128;45.582;5.298;2023-02-11T05:45:00;86.82;;;37.58;;
33826;SDS011;20128;45.582;5.298;2023-02-11T05:47:26;86.95;;;37.20;;
33826;SDS011;20128;45.582;5.298;2023-02-11T05:49:52;91.57;;;39.92;;
33826;SDS011;20128;45.582;5.298;2023-02-11T05:52:18;86.03;;;36.63;;
33826;SDS011;20128;45.582;5.298;2023-02-11T05:54:44;97.28;;;38.20;;
33826;SDS011;20128;45.582;5.298;2023-02-11T05:57:10;85.03;;;35.95;;
33826;SDS011;20128;45.582;5.298;2023-02-11T05:59:36;85.40;;;37.88;;
33826;SDS011;20128;45.582;5.298;2023-02-11T06:02:02;94.07;;;39.00;;
33826;SDS011;20128;45.582;5.298;2023-02-11T06:04:28;96.03;;;38.47;;
33826;SDS011;20128;45.582;5.298;2023-02-11T06:06:53;92.22;;;37.25;;
33826;SDS011;20128;45.582;5.298;2023-02-11T06:09:19;84.90;;;38.00;;
33826;SDS011;20128;45.582;5.298;2023-02-11T06:11:45;85.28;;;38.03;;
33826;SDS011;20128;45.582;5.298;2023-02-11T06:14:10;94.47;;;37.80;;
33826;SDS011;20128;45.582;5.298;2023-02-11T06:16:36;87.68;;;38.60;;
33826;SDS011;20128;45.582;5.298;2023-02-11T06:19:02;94.68;;;37.28;;
33826;SDS011;20128;45.582;5.298;2023-02-11T06:21:28;86.38;;;37.17;;
33826;SDS011;20128;45.582;5.298;2023-02-11T06:23:53;100.50;;;40.33;;
33826;SDS011;20128;45.582;5.298;2023-02-11T06:26:20;99.43;;;41.33;;
33826;SDS011;20128;45.582;5.298;2023-02-11T06:28:47;91.03;;;40.35;;
33826;SDS011;20128;45.582;5.298;2023-02-11T06:31:13;96.25;;;41.08;;
33826;SDS011;20128;45.582;5.298;2023-02-11T06:33:40;98.85;;;42.58;;
33826;SDS011;20128;45.582;5.298;2023-02-11T06:36:13;88.90;;;39.47;;
33826;SDS011;20128;45.582;5.298;2023-02-11T06:38:40;90.88;;;38.15;;
33826;SDS011;20128;45.582;5.298;2023-02-11T06:41:08;90.57;;;39.92;;
33826;SDS011;20128;45.582;5.298;2023-02-11T06:43:35;89.88;;;36.17;;
33826;SDS011;20128;45.582;5.298;2023-02-11T06:46:01;89.22;;;39.25;;
33826;SDS011;20128;45.582;5.298;2023-02-11T06:48:26;100.95;;;40.83;;
33826;SDS011;20128;45.582;5.298;2023-02-11T06:50:52;103.63;;;40.22;;
33826;SDS011;20128;45.582;5.298;2023-02-11T06:53:18;95.78;;;39.63;;
33826;SDS011;20128;45.582;5.298;2023-02-11T06:55:43;109.68;;;42.28;;
33826;SDS011;20128;45.582;5.298;2023-02-11T06:58:09;98.65;;;40.28;;
33826;SDS011;20128;45.582;5.298;2023-02-11T07:00:35;99.63;;;39.92;;
33826;SDS011;20128;45.582;5.298;2023-02-11T07:03:01;95.82;;;40.33;;
33826;SDS011;20128;45.582;5.298;2023-02-11T07:05:27;101.78;;;42.13;;
33826;SDS011;20128;45.582;5.298;2023-02-11T07:07:53;104.90;;;42.55;;
33826;SDS011;20128;45.582;5.298;2023-02-11T07:10:18;99.15;;;40.95;;
33826;SDS011;20128;45.582;5.298;2023-02-11T07:12:44;112.65;;;46.03;;
33826;SDS011;20128;45.582;5.298;2023-02-11T07:15:09;110.25;;;45.25;;
33826;SDS011;20128;45.582;5.298;2023-02-11T07:17:35;101.00;;;44.05;;
33826;SDS011;20128;45.582;5.298;2023-02-11T07:20:01;101.65;;;43.38;;
33826;SDS011;20128;45.582;5.298;2023-02-11T07:22:27;102.43;;;41.35;;
33826;SDS011;20128;45.582;5.298;2023-02-11T07:24:53;98.40;;;41.25;;
33826;SDS011;20128;45.582;5.298;2023-02-11T07:27:19;126.75;;;47.17;;
33826;SDS011;20128;45.582;5.298;2023-02-11T07:29:44;210.13;;;67.75;;
33826;SDS011;20128;45.582;5.298;2023-02-11T07:32:11;133.02;;;53.10;;
33826;SDS011;20128;45.582;5.298;2023-02-11T07:34:37;150.50;;;59.08;;
33826;SDS011;20128;45.582;5.298;2023-02-11T07:37:03;104.00;;;43.13;;
33826;SDS011;20128;45.582;5.298;2023-02-11T07:39:29;114.80;;;46.13;;
33826;SDS011;20128;45.582;5.298;2023-02-11T07:41:55;129.70;;;51.63;;
33826;SDS011;20128;45.582;5.298;2023-02-11T07:44:21;98.20;;;41.70;;
33826;SDS011;20128;45.582;5.298;2023-02-11T07:46:46;110.13;;;45.13;;
33826;SDS011;20128;45.582;5.298;2023-02-11T07:49:13;101.75;;;41.35;;
33826;SDS011;20128;45.582;5.298;2023-02-11T07:51:39;101.70;;;42.47;;
33826;SDS011;20128;45.582;5.298;2023-02-11T07:54:05;102.68;;;41.20;;
33826;SDS011;20128;45.582;5.298;2023-02-11T07:56:31;102.53;;;45.30;;
33826;SDS011;20128;45.582;5.298;2023-02-11T07:59:00;110.90;;;46.55;;
33826;SDS011;20128;45.582;5.298;2023-02-11T08:01:27;108.63;;;44.55;;
33826;SDS011;20128;45.582;5.298;2023-02-11T08:03:54;109.00;;;45.92;;
33826;SDS011;20128;45.582;5.298;2023-02-11T08:06:22;101.65;;;45.15;;
33826;SDS011;20128;45.582;5.298;2023-02-11T08:08:49;114.13;;;43.63;;
33826;SDS011;20128;45.582;5.298;2023-02-11T08:13:42;108.40;;;44.80;;
33826;SDS011;20128;45.582;5.298;2023-02-11T08:16:09;105.55;;;44.25;;
33826;SDS011;20128;45.582;5.298;2023-02-11T08:18:45;103.45;;;44.30;;
33826;SDS011;20128;45.582;5.298;2023-02-11T08:21:11;100.15;;;41.78;;
33826;SDS011;20128;45.582;5.298;2023-02-11T08:23:38;104.88;;;44.75;;
33826;SDS011;20128;45.582;5.298;2023-02-11T08:26:06;101.57;;;42.72;;
33826;SDS011;20128;45.582;5.298;2023-02-11T08:28:40;364.10;;;58.83;;
33826;SDS011;20128;45.582;5.298;2023-02-11T08:31:08;102.70;;;45.50;;
33826;SDS011;20128;45.582;5.298;2023-02-11T08:33:37;107.15;;;42.40;;
33826;SDS011;20128;45.582;5.298;2023-02-11T08:36:12;101.20;;;44.55;;
33826;SDS011;20128;45.582;5.298;2023-02-11T08:38:40;106.50;;;45.38;;
33826;SDS011;20128;45.582;5.298;2023-02-11T08:41:06;107.95;;;45.97;;
33826;SDS011;20128;45.582;5.298;2023-02-11T08:43:32;110.35;;;47.75;;
33826;SDS011;20128;45.582;5.298;2023-02-11T08:45:59;110.05;;;46.38;;
33826;SDS011;20128;45.582;5.298;2023-02-11T08:48:25;107.28;;;44.80;;
33826;SDS011;20128;45.582;5.298;2023-02-11T08:50:52;106.85;;;47.17;;
33826;SDS011;20128;45.582;5.298;2023-02-11T08:53:21;119.60;;;52.95;;
33826;SDS011;20128;45.582;5.298;2023-02-11T08:55:48;132.25;;;54.85;;
33826;SDS011;20128;45.582;5.298;2023-02-11T08:58:18;117.22;;;46.15;;
33826;SDS011;20128;45.582;5.298;2023-02-11T09:00:45;115.80;;;48.90;;
33826;SDS011;20128;45.582;5.298;2023-02-11T09:03:11;117.82;;;47.60;;
33826;SDS011;20128;45.582;5.298;2023-02-11T09:05:43;116.28;;;48.67;;
33826;SDS011;20128;45.582;5.298;2023-02-11T09:08:11;77.30;;;34.15;;
33826;SDS011;20128;45.582;5.298;2023-02-11T09:10:37;121.00;;;47.67;;
33826;SDS011;20128;45.582;5.298;2023-02-11T09:13:03;112.75;;;48.60;;
33826;SDS011;20128;45.582;5.298;2023-02-11T09:15:29;110.05;;;48.67;;
33826;SDS011;20128;45.582;5.298;2023-02-11T09:17:55;106.70;;;47.67;;
33826;SDS011;20128;45.582;5.298;2023-02-11T09:20:21;112.13;;;49.25;;
33826;SDS011;20128;45.582;5.298;2023-02-11T09:22:48;104.25;;;47.03;;
33826;SDS011;20128;45.582;5.298;2023-02-11T09:25:13;106.85;;;45.90;;
33826;SDS011;20128;45.582;5.298;2023-02-11T09:27:39;116.90;;;46.53;;
33826;SDS011;20128;45.582;5.298;2023-02-11T09:30:05;110.07;;;48.70;;
33826;SDS011;20128;45.582;5.298;2023-02-11T09:32:31;108.50;;;47.55;;
33826;SDS011;20128;45.582;5.298;2023-02-11T09:34:57;109.60;;;48.78;;
33826;SDS011;20128;45.582;5.298;2023-02-11T09:37:22;108.57;;;48.53;;
33826;SDS011;20128;45.582;5.298;2023-02-11T09:39:48;112.15;;;49.58;;
33826;SDS011;20128;45.582;5.298;2023-02-11T09:45:01;120.10;;;48.50;;
33826;SDS011;20128;45.582;5.298;2023-02-11T09:50:01;118.43;;;50.20;;
33826;SDS011;20128;45.582;5.298;2023-02-11T09:52:32;114.88;;;51.85;;
33826;SDS011;20128;45.582;5.298;2023-02-11T09:55:12;110.82;;;50.83;;
33826;SDS011;20128;45.582;5.298;2023-02-11T09:58:09;76.40;;;34.13;;
33826;SDS011;20128;45.582;5.298;2023-02-11T10:06:12;103.43;;;47.60;;
33826;SDS011;20128;45.582;5.298;2023-02-11T10:11:30;102.55;;;49.90;;
33826;SDS011;20128;45.582;5.298;2023-02-11T10:14:23;101.80;;;49.28;;
33826;SDS011;20128;45.582;5.298;2023-02-11T10:22:21;109.57;;;49.42;;
33826;SDS011;20128;45.582;5.298;2023-02-11T10:24:55;101.47;;;47.17;;
33826;SDS011;20128;45.582;5.298;2023-02-11T10:27:26;96.50;;;46.42;;
33826;SDS011;20128;45.582;5.298;2023-02-11T10:29:58;107.32;;;49.95;;
33826;SDS011;20128;45.582;5.298;2023-02-11T10:35:03;96.23;;;45.87;;
33826;SDS011;20128;45.582;5.298;2023-02-11T10:37:39;103.68;;;47.20;;
33826;SDS011;20128;45.582;5.298;2023-02-11T10:40:05;102.68;;;48.15;;
33826;SDS011;20128;45.582;5.298;2023-02-11T10:42:40;112.30;;;52.72;;
33826;SDS011;20128;45.582;5.298;2023-02-11T10:45:15;112.78;;;52.67;;
33826;SDS011;20128;45.582;5.298;2023-02-11T10:48:02;79.70;;;39.38;;
33826;SDS011;20128;45.582;5.298;2023-02-11T10:50:59;106.03;;;50.58;;
33826;SDS011;20128;45.582;5.298;2023-02-11T10:53:37;110.47;;;52.20;;
33826;SDS011;20128;45.582;5.298;2023-02-11T10:56:03;106.05;;;50.20;;
33826;SDS011;20128;45.582;5.298;2023-02-11T11:01:21;102.35;;;47.50;;
33826;SDS011;20128;45.582;5.298;2023-02-11T11:03:49;98.80;;;46.15;;
33826;SDS011;20128;45.582;5.298;2023-02-11T11:06:16;101.80;;;48.50;;
33826;SDS011;20128;45.582;5.298;2023-02-11T11:08:57;97.95;;;47.00;;
33826;SDS011;20128;45.582;5.298;2023-02-11T11:11:23;94.80;;;46.95;;
33826;SDS011;20128;45.582;5.298;2023-02-11T11:13:54;100.72;;;44.67;;
33826;SDS011;20128;45.582;5.298;2023-02-11T11:16:29;106.10;;;49.60;;
33826;SDS011;20128;45.582;5.298;2023-02-11T11:21:39;91.57;;;44.42;;
33826;SDS011;20128;45.582;5.298;2023-02-11T11:24:13;92.63;;;44.58;;
33826;SDS011;20128;45.582;5.298;2023-02-11T11:26:56;96.28;;;46.30;;
33826;SDS011;20128;45.582;5.298;2023-02-11T11:29:30;93.00;;;46.72;;
33826;SDS011;20128;45.582;5.298;2023-02-11T11:32:12;91.50;;;44.67;;
33826;SDS011;20128;45.582;5.298;2023-02-11T11:34:47;99.80;;;44.53;;
33826;SDS011;20128;45.582;5.298;2023-02-11T11:37:26;106.35;;;47.63;;
33826;SDS011;20128;45.582;5.298;2023-02-11T11:42:38;89.35;;;43.88;;
33826;SDS011;20128;45.582;5.298;2023-02-11T11:50:43;97.20;;;44.03;;
33826;SDS011;20128;45.582;5.298;2023-02-11T11:58:27;99.30;;;47.20;;
33826;SDS011;20128;45.582;5.298;2023-02-11T12:08:57;91.88;;;46.20;;
33826;SDS011;20128;45.582;5.298;2023-02-11T12:17:51;98.97;;;46.05;;
33826;SDS011;20128;45.582;5.298;2023-02-11T12:26:15;98.13;;;48.33;;
33826;SDS011;20128;45.582;5.298;2023-02-11T12:48:12;85.90;;;41.65;;
33826;SDS011;20128;45.582;5.298;2023-02-11T12:57:01;89.18;;;42.92;;
33826;SDS011;20128;45.582;5.298;2023-02-11T13:02:27;100.45;;;48.10;;
33826;SDS011;20128;45.582;5.298;2023-02-11T13:05:05;86.43;;;42.85;;
33826;SDS011;20128;45.582;5.298;2023-02-11T13:07:47;91.97;;;45.95;;
33826;SDS011;20128;45.582;5.298;2023-02-11T13:10:21;91.32;;;43.45;;
33826;SDS011;20128;45.582;5.298;2023-02-11T13:12:51;94.50;;;46.00;;
33826;SDS011;20128;45.582;5.298;2023-02-11T13:15:38;93.20;;;43.35;;
33826;SDS011;20128;45.582;5.298;2023-02-11T13:23:42;94.63;;;44.25;;
33826;SDS011;20128;45.582;5.298;2023-02-11T13:26:35;92.68;;;46.65;;
33826;SDS011;20128;45.582;5.298;2023-02-11T13:42:22;85.90;;;41.00;;
33826;SDS011;20128;45.582;5.298;2023-02-11T13:44:48;94.60;;;46.65;;
33826;SDS011;20128;45.582;5.298;2023-02-11T13:47:32;91.75;;;47.00;;
33826;SDS011;20128;45.582;5.298;2023-02-11T13:50:00;87.75;;;42.95;;
33826;SDS011;20128;45.582;5.298;2023-02-11T13:52:32;86.10;;;43.88;;
33826;SDS011;20128;45.582;5.298;2023-02-11T13:55:06;87.30;;;42.47;;
33826;SDS011;20128;45.582;5.298;2023-02-11T13:57:44;87.80;;;42.25;;
33826;SDS011;20128;45.582;5.298;2023-02-11T14:03:43;94.93;;;41.25;;
33826;SDS011;20128;45.582;5.298;2023-02-11T14:19:36;80.82;;;41.92;;
33826;SDS011;20128;45.582;5.298;2023-02-11T14:27:06;86.45;;;42.10;;
33826;SDS011;20128;45.582;5.298;2023-02-11T14:43:52;81.13;;;39.80;;
33826;SDS011;20128;45.582;5.298;2023-02-11T14:46:22;82.30;;;40.58;;
33826;SDS011;20128;45.582;5.298;2023-02-11T14:48:53;79.13;;;40.30;;
33826;SDS011;20128;45.582;5.298;2023-02-11T14:51:25;82.35;;;41.10;;
33826;SDS011;20128;45.582;5.298;2023-02-11T14:53:56;78.63;;;40.22;;
33826;SDS011;20128;45.582;5.298;2023-02-11T14:56:28;80.20;;;40.75;;
33826;SDS011;20128;45.582;5.298;2023-02-11T14:58:58;74.10;;;38.00;;
33826;SDS011;20128;45.582;5.298;2023-02-11T15:01:29;77.72;;;38.03;;
33826;SDS011;20128;45.582;5.298;2023-02-11T15:04:00;80.57;;;39.38;;
33826;SDS011;20128;45.582;5.298;2023-02-11T15:06:30;76.50;;;39.53;;
33826;SDS011;20128;45.582;5.298;2023-02-11T15:09:13;76.43;;;36.55;;
33826;SDS011;20128;45.582;5.298;2023-02-11T15:11:50;87.80;;;40.67;;
33826;SDS011;20128;45.582;5.298;2023-02-11T15:14:25;79.45;;;39.55;;
33826;SDS011;20128;45.582;5.298;2023-02-11T15:16:53;80.43;;;38.53;;
33826;SDS011;20128;45.582;5.298;2023-02-11T15:22:00;73.45;;;36.60;;
33826;SDS011;20128;45.582;5.298;2023-02-11T15:24:29;83.55;;;39.38;;
33826;SDS011;20128;45.582;5.298;2023-02-11T15:29:27;83.50;;;40.30;;
33826;SDS011;20128;45.582;5.298;2023-02-11T15:34:41;73.07;;;38.10;;
33826;SDS011;20128;45.582;5.298;2023-02-11T15:37:09;76.85;;;39.40;;
33826;SDS011;20128;45.582;5.298;2023-02-11T15:39:39;82.47;;;40.60;;
33826;SDS011;20128;45.582;5.298;2023-02-11T15:42:26;81.57;;;38.40;;
33826;SDS011;20128;45.582;5.298;2023-02-11T15:47:35;81.32;;;39.88;;
33826;SDS011;20128;45.582;5.298;2023-02-11T15:50:03;79.55;;;39.65;;
33826;SDS011;20128;45.582;5.298;2023-02-11T15:52:29;78.32;;;38.05;;
33826;SDS011;20128;45.582;5.298;2023-02-11T15:54:56;83.18;;;41.47;;
33826;SDS011;20128;45.582;5.298;2023-02-11T15:57:25;81.95;;;43.03;;
33826;SDS011;20128;45.582;5.298;2023-02-11T15:59:52;76.25;;;38.78;;
33826;SDS011;20128;45.582;5.298;2023-02-11T16:02:53;84.82;;;40.10;;
33826;SDS011;20128;45.582;5.298;2023-02-11T16:05:25;78.55;;;38.35;;
33826;SDS011;20128;45.582;5.298;2023-02-11T16:07:51;81.50;;;41.22;;
33826;SDS011;20128;45.582;5.298;2023-02-11T16:10:18;89.88;;;42.22;;
33826;SDS011;20128;45.582;5.298;2023-02-11T16:12:52;83.20;;;41.55;;
33826;SDS011;20128;45.582;5.298;2023-02-11T16:20:50;84.43;;;40.78;;
33826;SDS011;20128;45.582;5.298;2023-02-11T16:23:24;81.88;;;40.90;;
33826;SDS011;20128;45.582;5.298;2023-02-11T16:25:58;90.22;;;42.33;;
33826;SDS011;20128;45.582;5.298;2023-02-11T16:28:29;86.68;;;40.97;;
33826;SDS011;20128;45.582;5.298;2023-02-11T16:30:55;92.35;;;40.92;;
33826;SDS011;20128;45.582;5.298;2023-02-11T16:33:21;83.93;;;40.90;;
33826;SDS011;20128;45.582;5.298;2023-02-11T16:35:47;86.00;;;39.78;;
33826;SDS011;20128;45.582;5.298;2023-02-11T16:38:14;86.65;;;42.67;;
33826;SDS011;20128;45.582;5.298;2023-02-11T16:40:41;80.60;;;40.33;;
33826;SDS011;20128;45.582;5.298;2023-02-11T16:43:08;91.40;;;43.78;;
33826;SDS011;20128;45.582;5.298;2023-02-11T16:45:37;92.93;;;44.15;;
33826;SDS011;20128;45.582;5.298;2023-02-11T16:48:07;86.30;;;42.45;;
33826;SDS011;20128;45.582;5.298;2023-02-11T16:50:34;93.22;;;43.70;;
33826;SDS011;20128;45.582;5.298;2023-02-11T16:52:59;88.30;;;42.35;;
33826;SDS011;20128;45.582;5.298;2023-02-11T16:55:30;85.85;;;40.88;;
33826;SDS011;20128;45.582;5.298;2023-02-11T16:57:57;82.03;;;41.15;;
33826;SDS011;20128;45.582;5.298;2023-02-11T17:00:22;81.85;;;41.97;;
33826;SDS011;20128;45.582;5.298;2023-02-11T17:02:48;97.93;;;46.50;;
33826;SDS011;20128;45.582;5.298;2023-02-11T17:05:15;87.68;;;43.60;;
33826;SDS011;20128;45.582;5.298;2023-02-11T17:07:47;62.33;;;30.70;;
33826;SDS011;20128;45.582;5.298;2023-02-11T17:10:16;89.53;;;42.47;;
33826;SDS011;20128;45.582;5.298;2023-02-11T17:12:44;97.35;;;44.33;;
33826;SDS011;20128;45.582;5.298;2023-02-11T17:15:10;97.20;;;45.75;;
33826;SDS011;20128;45.582;5.298;2023-02-11T17:17:36;97.63;;;44.50;;
33826;SDS011;20128;45.582;5.298;2023-02-11T17:20:01;108.07;;;47.65;;
33826;SDS011;20128;45.582;5.298;2023-02-11T17:22:27;94.07;;;44.13;;
33826;SDS011;20128;45.582;5.298;2023-02-11T17:24:53;88.10;;;41.97;;
33826;SDS011;20128;45.582;5.298;2023-02-11T17:27:21;86.65;;;40.35;;
33826;SDS011;20128;45.582;5.298;2023-02-11T17:29:47;83.32;;;39.67;;
33826;SDS011;20128;45.582;5.298;2023-02-11T17:32:12;80.53;;;39.85;;
33826;SDS011;20128;45.582;5.298;2023-02-11T17:34:38;77.25;;;39.22;;
33826;SDS011;20128;45.582;5.298;2023-02-11T17:37:04;87.57;;;40.05;;
33826;SDS011;20128;45.582;5.298;2023-02-11T17:39:33;79.60;;;40.95;;
33826;SDS011;20128;45.582;5.298;2023-02-11T17:42:00;83.82;;;40.75;;
33826;SDS011;20128;45.582;5.298;2023-02-11T17:44:26;111.15;;;49.45;;
33826;SDS011;20128;45.582;5.298;2023-02-11T17:46:52;107.97;;;54.20;;
33826;SDS011;20128;45.582;5.298;2023-02-11T17:49:18;144.90;;;65.90;;
33826;SDS011;20128;45.582;5.298;2023-02-11T17:51:44;173.98;;;77.90;;